Hollins, Alabama
Current Conditions -  °F | °C
As of 2:55 AM on Saturday 22 Nov 2014 (Local Time) from KSCD Reporting Station
Clear Clear  
Wind Chill:   Ceiling: Unl
Heat Index:   Visibility: 7mi
Dew Point:   Wind: 0mph
Humidity: 100%   Direction: NA
Pressure: 30.38"   Gusts: NA
Location:  33.12°N, 86.14°W
Report Text: KSCD 220855Z AUTO 00000KT 7SM CLR 02/02 A3038 RMK AO2 T00180018
Loading
Personal Weather Stations






























Interactive Weather Map New forecast layout! Learn more

10-Day Weather Forecast

Advertisements
Track Severe Weather on mobile